sensor_id;sensor_type;location;lat;lon;timestamp;P1;durP1;ratioP1;P2;durP2;ratioP2
3633;SDS011;1833;42.718;23.270;2022-07-25T00:01:53;30.90;;;28.50;;
3633;SDS011;1833;42.718;23.270;2022-07-25T00:04:21;33.40;;;30.30;;
3633;SDS011;1833;42.718;23.270;2022-07-25T00:06:48;33.13;;;30.50;;
3633;SDS011;1833;42.718;23.270;2022-07-25T00:09:15;33.23;;;30.27;;
3633;SDS011;1833;42.718;23.270;2022-07-25T00:11:43;33.10;;;29.90;;
3633;SDS011;1833;42.718;23.270;2022-07-25T00:14:10;33.40;;;30.13;;
3633;SDS011;1833;42.718;23.270;2022-07-25T00:16:37;33.10;;;30.20;;
3633;SDS011;1833;42.718;23.270;2022-07-25T00:19:06;32.10;;;29.37;;
3633;SDS011;1833;42.718;23.270;2022-07-25T00:21:33;35.00;;;31.70;;
3633;SDS011;1833;42.718;23.270;2022-07-25T00:24:01;32.83;;;30.00;;
3633;SDS011;1833;42.718;23.270;2022-07-25T00:26:28;32.47;;;29.77;;
3633;SDS011;1833;42.718;23.270;2022-07-25T00:28:55;34.23;;;31.17;;
3633;SDS011;1833;42.718;23.270;2022-07-25T00:31:23;32.70;;;30.00;;
3633;SDS011;1833;42.718;23.270;2022-07-25T00:33:50;34.37;;;30.93;;
3633;SDS011;1833;42.718;23.270;2022-07-25T00:36:19;32.90;;;30.20;;
3633;SDS011;1833;42.718;23.270;2022-07-25T00:38:46;33.10;;;30.17;;
3633;SDS011;1833;42.718;23.270;2022-07-25T00:41:13;34.07;;;31.27;;
3633;SDS011;1833;42.718;23.270;2022-07-25T00:43:41;35.40;;;32.00;;
3633;SDS011;1833;42.718;23.270;2022-07-25T00:46:10;32.40;;;29.70;;
3633;SDS011;1833;42.718;23.270;2022-07-25T00:48:38;33.57;;;30.43;;
3633;SDS011;1833;42.718;23.270;2022-07-25T00:51:05;33.10;;;30.47;;
3633;SDS011;1833;42.718;23.270;2022-07-25T00:53:34;32.70;;;30.00;;
3633;SDS011;1833;42.718;23.270;2022-07-25T00:56:02;33.80;;;30.83;;
3633;SDS011;1833;42.718;23.270;2022-07-25T00:58:30;35.03;;;31.80;;
3633;SDS011;1833;42.718;23.270;2022-07-25T01:00:58;32.63;;;29.70;;
3633;SDS011;1833;42.718;23.270;2022-07-25T01:03:26;33.73;;;30.90;;
3633;SDS011;1833;42.718;23.270;2022-07-25T01:05:53;35.47;;;32.47;;
3633;SDS011;1833;42.718;23.270;2022-07-25T01:08:20;35.40;;;32.67;;
3633;SDS011;1833;42.718;23.270;2022-07-25T01:10:49;35.10;;;32.30;;
3633;SDS011;1833;42.718;23.270;2022-07-25T01:13:17;35.07;;;32.17;;
3633;SDS011;1833;42.718;23.270;2022-07-25T01:15:44;36.00;;;32.80;;
3633;SDS011;1833;42.718;23.270;2022-07-25T01:18:11;34.80;;;31.90;;
3633;SDS011;1833;42.718;23.270;2022-07-25T01:20:40;33.27;;;30.60;;
3633;SDS011;1833;42.718;23.270;2022-07-25T01:23:07;33.83;;;30.60;;
3633;SDS011;1833;42.718;23.270;2022-07-25T01:25:34;34.00;;;30.90;;
3633;SDS011;1833;42.718;23.270;2022-07-25T01:28:02;34.10;;;31.10;;
3633;SDS011;1833;42.718;23.270;2022-07-25T01:30:29;34.50;;;31.00;;
3633;SDS011;1833;42.718;23.270;2022-07-25T01:32:56;34.90;;;32.10;;
3633;SDS011;1833;42.718;23.270;2022-07-25T01:35:24;34.50;;;31.63;;
3633;SDS011;1833;42.718;23.270;2022-07-25T01:37:52;34.33;;;31.33;;
3633;SDS011;1833;42.718;23.270;2022-07-25T01:40:19;35.27;;;31.57;;
3633;SDS011;1833;42.718;23.270;2022-07-25T01:42:47;34.80;;;31.80;;
3633;SDS011;1833;42.718;23.270;2022-07-25T01:45:14;34.63;;;31.50;;
3633;SDS011;1833;42.718;23.270;2022-07-25T01:47:44;33.10;;;30.40;;
3633;SDS011;1833;42.718;23.270;2022-07-25T01:50:11;34.57;;;31.60;;
3633;SDS011;1833;42.718;23.270;2022-07-25T01:52:38;33.93;;;30.90;;
3633;SDS011;1833;42.718;23.270;2022-07-25T01:55:07;33.60;;;30.90;;
3633;SDS011;1833;42.718;23.270;2022-07-25T01:57:35;33.90;;;31.00;;
3633;SDS011;1833;42.718;23.270;2022-07-25T02:00:02;34.23;;;31.33;;
3633;SDS011;1833;42.718;23.270;2022-07-25T02:02:30;33.23;;;30.00;;
3633;SDS011;1833;42.718;23.270;2022-07-25T02:04:57;35.00;;;31.67;;
3633;SDS011;1833;42.718;23.270;2022-07-25T02:07:24;32.60;;;29.80;;
3633;SDS011;1833;42.718;23.270;2022-07-25T02:09:52;33.77;;;30.37;;
3633;SDS011;1833;42.718;23.270;2022-07-25T02:12:20;32.93;;;30.30;;
3633;SDS011;1833;42.718;23.270;2022-07-25T02:14:48;37.20;;;33.37;;
3633;SDS011;1833;42.718;23.270;2022-07-25T02:17:15;35.97;;;32.90;;
3633;SDS011;1833;42.718;23.270;2022-07-25T02:19:42;34.63;;;31.83;;
3633;SDS011;1833;42.718;23.270;2022-07-25T02:22:09;34.17;;;31.07;;
3633;SDS011;1833;42.718;23.270;2022-07-25T02:24:37;34.97;;;31.53;;
3633;SDS011;1833;42.718;23.270;2022-07-25T02:27:04;34.97;;;31.97;;
3633;SDS011;1833;42.718;23.270;2022-07-25T02:29:33;33.77;;;30.70;;
3633;SDS011;1833;42.718;23.270;2022-07-25T02:32:00;33.57;;;30.60;;
3633;SDS011;1833;42.718;23.270;2022-07-25T02:34:28;35.97;;;32.43;;
3633;SDS011;1833;42.718;23.270;2022-07-25T02:36:55;34.23;;;31.27;;
3633;SDS011;1833;42.718;23.270;2022-07-25T02:39:22;34.07;;;31.20;;
3633;SDS011;1833;42.718;23.270;2022-07-25T02:41:49;34.50;;;31.50;;
3633;SDS011;1833;42.718;23.270;2022-07-25T02:44:17;34.03;;;30.97;;
3633;SDS011;1833;42.718;23.270;2022-07-25T02:46:45;34.00;;;30.90;;
3633;SDS011;1833;42.718;23.270;2022-07-25T02:49:12;34.90;;;31.77;;
3633;SDS011;1833;42.718;23.270;2022-07-25T02:51:40;35.07;;;32.23;;
3633;SDS011;1833;42.718;23.270;2022-07-25T02:54:07;33.87;;;31.17;;
3633;SDS011;1833;42.718;23.270;2022-07-25T02:56:34;35.33;;;31.80;;
3633;SDS011;1833;42.718;23.270;2022-07-25T02:59:02;34.60;;;31.60;;
3633;SDS011;1833;42.718;23.270;2022-07-25T03:01:29;34.37;;;31.47;;
3633;SDS011;1833;42.718;23.270;2022-07-25T03:03:58;33.80;;;30.97;;
3633;SDS011;1833;42.718;23.270;2022-07-25T03:06:25;34.80;;;31.50;;
3633;SDS011;1833;42.718;23.270;2022-07-25T03:08:52;38.20;;;31.43;;
3633;SDS011;1833;42.718;23.270;2022-07-25T03:11:19;31.70;;;29.07;;
3633;SDS011;1833;42.718;23.270;2022-07-25T03:13:47;32.97;;;30.23;;
3633;SDS011;1833;42.718;23.270;2022-07-25T03:16:14;33.13;;;30.20;;
3633;SDS011;1833;42.718;23.270;2022-07-25T03:18:41;33.20;;;29.93;;
3633;SDS011;1833;42.718;23.270;2022-07-25T03:21:10;34.27;;;31.03;;
3633;SDS011;1833;42.718;23.270;2022-07-25T03:23:37;33.63;;;30.43;;
3633;SDS011;1833;42.718;23.270;2022-07-25T03:26:04;34.77;;;31.87;;
3633;SDS011;1833;42.718;23.270;2022-07-25T03:28:32;35.97;;;32.93;;
3633;SDS011;1833;42.718;23.270;2022-07-25T03:30:59;35.40;;;32.37;;
3633;SDS011;1833;42.718;23.270;2022-07-25T03:33:26;36.73;;;33.60;;
3633;SDS011;1833;42.718;23.270;2022-07-25T03:35:54;35.60;;;32.20;;
3633;SDS011;1833;42.718;23.270;2022-07-25T03:38:23;34.90;;;31.80;;
3633;SDS011;1833;42.718;23.270;2022-07-25T03:40:50;33.60;;;30.70;;
3633;SDS011;1833;42.718;23.270;2022-07-25T03:43:17;33.67;;;30.97;;
3633;SDS011;1833;42.718;23.270;2022-07-25T03:45:44;33.20;;;30.40;;
3633;SDS011;1833;42.718;23.270;2022-07-25T03:48:12;35.43;;;32.23;;
3633;SDS011;1833;42.718;23.270;2022-07-25T03:50:39;34.57;;;31.53;;
3633;SDS011;1833;42.718;23.270;2022-07-25T03:53:06;34.40;;;31.53;;
3633;SDS011;1833;42.718;23.270;2022-07-25T03:55:35;33.97;;;31.07;;
3633;SDS011;1833;42.718;23.270;2022-07-25T03:58:03;33.63;;;30.93;;
3633;SDS011;1833;42.718;23.270;2022-07-25T04:00:31;38.43;;;34.53;;
3633;SDS011;1833;42.718;23.270;2022-07-25T04:02:58;34.63;;;31.37;;
3633;SDS011;1833;42.718;23.270;2022-07-25T04:05:25;34.80;;;31.77;;
3633;SDS011;1833;42.718;23.270;2022-07-25T04:07:54;34.50;;;31.60;;
3633;SDS011;1833;42.718;23.270;2022-07-25T04:10:21;33.77;;;31.07;;
3633;SDS011;1833;42.718;23.270;2022-07-25T04:12:50;32.13;;;29.50;;
3633;SDS011;1833;42.718;23.270;2022-07-25T04:15:17;33.80;;;30.77;;
3633;SDS011;1833;42.718;23.270;2022-07-25T04:17:44;32.53;;;29.57;;
3633;SDS011;1833;42.718;23.270;2022-07-25T04:20:12;32.93;;;29.83;;
3633;SDS011;1833;42.718;23.270;2022-07-25T04:22:39;32.50;;;29.97;;
3633;SDS011;1833;42.718;23.270;2022-07-25T04:25:06;33.23;;;30.53;;
3633;SDS011;1833;42.718;23.270;2022-07-25T04:27:34;32.63;;;29.30;;
3633;SDS011;1833;42.718;23.270;2022-07-25T04:30:04;32.70;;;29.80;;
3633;SDS011;1833;42.718;23.270;2022-07-25T04:32:31;31.67;;;28.97;;
3633;SDS011;1833;42.718;23.270;2022-07-25T04:34:59;32.23;;;29.17;;
3633;SDS011;1833;42.718;23.270;2022-07-25T04:37:26;31.77;;;29.27;;
3633;SDS011;1833;42.718;23.270;2022-07-25T04:39:53;32.20;;;29.50;;
3633;SDS011;1833;42.718;23.270;2022-07-25T04:42:20;31.97;;;28.90;;
3633;SDS011;1833;42.718;23.270;2022-07-25T04:44:48;32.90;;;30.05;;
3633;SDS011;1833;42.718;23.270;2022-07-25T04:47:16;32.53;;;29.73;;
3633;SDS011;1833;42.718;23.270;2022-07-25T04:49:44;31.10;;;28.60;;
3633;SDS011;1833;42.718;23.270;2022-07-25T04:52:11;31.55;;;29.05;;
3633;SDS011;1833;42.718;23.270;2022-07-25T04:54:38;31.27;;;28.67;;
3633;SDS011;1833;42.718;23.270;2022-07-25T04:57:06;31.10;;;28.50;;
3633;SDS011;1833;42.718;23.270;2022-07-25T04:59:33;30.88;;;28.23;;
3633;SDS011;1833;42.718;23.270;2022-07-25T05:02:00;30.65;;;28.25;;
3633;SDS011;1833;42.718;23.270;2022-07-25T05:04:29;29.80;;;27.55;;
3633;SDS011;1833;42.718;23.270;2022-07-25T05:06:56;30.80;;;27.92;;
3633;SDS011;1833;42.718;23.270;2022-07-25T05:09:23;32.13;;;29.45;;
3633;SDS011;1833;42.718;23.270;2022-07-25T05:11:51;30.17;;;27.63;;
3633;SDS011;1833;42.718;23.270;2022-07-25T05:14:19;34.75;;;28.40;;
3633;SDS011;1833;42.718;23.270;2022-07-25T05:16:46;30.75;;;28.35;;
3633;SDS011;1833;42.718;23.270;2022-07-25T05:19:13;30.63;;;27.80;;
3633;SDS011;1833;42.718;23.270;2022-07-25T05:21:42;33.05;;;28.83;;
3633;SDS011;1833;42.718;23.270;2022-07-25T05:24:09;32.22;;;29.27;;
3633;SDS011;1833;42.718;23.270;2022-07-25T05:26:37;36.60;;;33.35;;
3633;SDS011;1833;42.718;23.270;2022-07-25T05:29:04;32.33;;;29.55;;
3633;SDS011;1833;42.718;23.270;2022-07-25T05:31:32;39.35;;;35.53;;
3633;SDS011;1833;42.718;23.270;2022-07-25T05:33:59;38.95;;;35.60;;
3633;SDS011;1833;42.718;23.270;2022-07-25T05:36:27;33.75;;;30.77;;
3633;SDS011;1833;42.718;23.270;2022-07-25T05:38:55;31.27;;;28.75;;
3633;SDS011;1833;42.718;23.270;2022-07-25T05:41:23;30.23;;;27.33;;
3633;SDS011;1833;42.718;23.270;2022-07-25T05:43:50;31.90;;;28.38;;
3633;SDS011;1833;42.718;23.270;2022-07-25T05:46:17;32.53;;;29.55;;
3633;SDS011;1833;42.718;23.270;2022-07-25T05:48:45;40.47;;;36.78;;
3633;SDS011;1833;42.718;23.270;2022-07-25T05:51:12;33.17;;;30.17;;
3633;SDS011;1833;42.718;23.270;2022-07-25T05:53:39;34.88;;;31.38;;
3633;SDS011;1833;42.718;23.270;2022-07-25T05:56:09;35.33;;;32.33;;
3633;SDS011;1833;42.718;23.270;2022-07-25T05:58:36;38.20;;;34.10;;
3633;SDS011;1833;42.718;23.270;2022-07-25T06:01:05;40.92;;;36.92;;
3633;SDS011;1833;42.718;23.270;2022-07-25T06:03:32;37.45;;;33.80;;
3633;SDS011;1833;42.718;23.270;2022-07-25T06:06:00;35.47;;;32.53;;
3633;SDS011;1833;42.718;23.270;2022-07-25T06:08:27;36.20;;;33.00;;
3633;SDS011;1833;42.718;23.270;2022-07-25T06:10:55;35.60;;;32.38;;
3633;SDS011;1833;42.718;23.270;2022-07-25T06:13:24;32.78;;;30.10;;
3633;SDS011;1833;42.718;23.270;2022-07-25T06:15:52;32.88;;;30.17;;
3633;SDS011;1833;42.718;23.270;2022-07-25T06:18:19;32.50;;;29.90;;
3633;SDS011;1833;42.718;23.270;2022-07-25T06:20:46;32.42;;;29.80;;
3633;SDS011;1833;42.718;23.270;2022-07-25T06:23:14;40.28;;;36.60;;
3633;SDS011;1833;42.718;23.270;2022-07-25T06:25:41;35.92;;;32.83;;
3633;SDS011;1833;42.718;23.270;2022-07-25T06:28:08;32.90;;;30.25;;
3633;SDS011;1833;42.718;23.270;2022-07-25T06:30:39;32.92;;;29.45;;
3633;SDS011;1833;42.718;23.270;2022-07-25T06:33:06;32.88;;;30.23;;
3633;SDS011;1833;42.718;23.270;2022-07-25T06:35:34;31.38;;;28.95;;
3633;SDS011;1833;42.718;23.270;2022-07-25T06:38:01;30.80;;;28.13;;
3633;SDS011;1833;42.718;23.270;2022-07-25T06:40:28;30.77;;;28.33;;
3633;SDS011;1833;42.718;23.270;2022-07-25T06:42:56;31.67;;;28.73;;
3633;SDS011;1833;42.718;23.270;2022-07-25T06:45:23;29.90;;;27.50;;
3633;SDS011;1833;42.718;23.270;2022-07-25T06:47:52;32.65;;;29.90;;
3633;SDS011;1833;42.718;23.270;2022-07-25T06:50:19;35.25;;;32.13;;
3633;SDS011;1833;42.718;23.270;2022-07-25T06:52:47;31.20;;;28.70;;
3633;SDS011;1833;42.718;23.270;2022-07-25T06:55:14;32.85;;;29.48;;
3633;SDS011;1833;42.718;23.270;2022-07-25T06:57:42;31.65;;;28.88;;
3633;SDS011;1833;42.718;23.270;2022-07-25T07:00:10;32.03;;;29.42;;
3633;SDS011;1833;42.718;23.270;2022-07-25T07:02:46;32.05;;;28.98;;
3633;SDS011;1833;42.718;23.270;2022-07-25T07:05:14;30.45;;;27.98;;
3633;SDS011;1833;42.718;23.270;2022-07-25T07:07:42;38.90;;;34.95;;
3633;SDS011;1833;42.718;23.270;2022-07-25T07:10:09;31.55;;;28.40;;
3633;SDS011;1833;42.718;23.270;2022-07-25T07:12:36;38.88;;;35.47;;
3633;SDS011;1833;42.718;23.270;2022-07-25T07:15:04;39.63;;;36.05;;
3633;SDS011;1833;42.718;23.270;2022-07-25T07:17:32;33.08;;;30.55;;
3633;SDS011;1833;42.718;23.270;2022-07-25T07:19:59;31.17;;;28.58;;
3633;SDS011;1833;42.718;23.270;2022-07-25T07:22:28;31.05;;;28.70;;
3633;SDS011;1833;42.718;23.270;2022-07-25T07:24:55;29.95;;;27.73;;
3633;SDS011;1833;42.718;23.270;2022-07-25T07:27:23;31.48;;;28.98;;
3633;SDS011;1833;42.718;23.270;2022-07-25T07:29:50;31.83;;;29.13;;
3633;SDS011;1833;42.718;23.270;2022-07-25T07:32:17;32.45;;;30.02;;
3633;SDS011;1833;42.718;23.270;2022-07-25T07:34:44;30.77;;;28.27;;
3633;SDS011;1833;42.718;23.270;2022-07-25T07:37:12;31.50;;;28.80;;
3633;SDS011;1833;42.718;23.270;2022-07-25T07:39:40;31.30;;;28.95;;
3633;SDS011;1833;42.718;23.270;2022-07-25T07:42:08;31.63;;;29.13;;
3633;SDS011;1833;42.718;23.270;2022-07-25T07:44:35;32.28;;;29.77;;
3633;SDS011;1833;42.718;23.270;2022-07-25T07:47:02;30.88;;;28.50;;
3633;SDS011;1833;42.718;23.270;2022-07-25T07:49:30;30.35;;;27.90;;
3633;SDS011;1833;42.718;23.270;2022-07-25T07:51:57;29.98;;;27.67;;
3633;SDS011;1833;42.718;23.270;2022-07-25T07:54:24;30.52;;;28.23;;
3633;SDS011;1833;42.718;23.270;2022-07-25T07:57:19;30.17;;;27.98;;
3633;SDS011;1833;42.718;23.270;2022-07-25T07:59:46;30.05;;;27.48;;
3633;SDS011;1833;42.718;23.270;2022-07-25T08:02:13;30.13;;;27.75;;
3633;SDS011;1833;42.718;23.270;2022-07-25T08:04:41;30.45;;;27.90;;
3633;SDS011;1833;42.718;23.270;2022-07-25T08:07:10;31.08;;;28.55;;
3633;SDS011;1833;42.718;23.270;2022-07-25T08:09:37;30.08;;;27.67;;
3633;SDS011;1833;42.718;23.270;2022-07-25T08:12:04;31.55;;;28.98;;
3633;SDS011;1833;42.718;23.270;2022-07-25T08:14:33;30.73;;;28.42;;
3633;SDS011;1833;42.718;23.270;2022-07-25T08:17:01;31.88;;;28.83;;
3633;SDS011;1833;42.718;23.270;2022-07-25T08:19:28;29.98;;;27.88;;
3633;SDS011;1833;42.718;23.270;2022-07-25T08:21:56;31.88;;;28.67;;
3633;SDS011;1833;42.718;23.270;2022-07-25T08:24:23;29.27;;;27.08;;
3633;SDS011;1833;42.718;23.270;2022-07-25T08:26:50;31.55;;;28.85;;
3633;SDS011;1833;42.718;23.270;2022-07-25T08:29:18;30.45;;;27.95;;
3633;SDS011;1833;42.718;23.270;2022-07-25T08:31:46;32.13;;;29.33;;
3633;SDS011;1833;42.718;23.270;2022-07-25T08:34:14;29.92;;;27.33;;
3633;SDS011;1833;42.718;23.270;2022-07-25T08:36:41;31.10;;;28.00;;
3633;SDS011;1833;42.718;23.270;2022-07-25T08:39:08;30.83;;;27.77;;
3633;SDS011;1833;42.718;23.270;2022-07-25T08:41:37;30.98;;;28.35;;
3633;SDS011;1833;42.718;23.270;2022-07-25T08:44:05;32.28;;;29.13;;
3633;SDS011;1833;42.718;23.270;2022-07-25T08:46:34;30.13;;;27.60;;
3633;SDS011;1833;42.718;23.270;2022-07-25T08:49:03;31.08;;;28.17;;
3633;SDS011;1833;42.718;23.270;2022-07-25T08:51:32;30.65;;;28.25;;
3633;SDS011;1833;42.718;23.270;2022-07-25T08:54:00;34.75;;;31.35;;
3633;SDS011;1833;42.718;23.270;2022-07-25T08:56:30;29.52;;;27.27;;
3633;SDS011;1833;42.718;23.270;2022-07-25T08:58:58;30.60;;;28.08;;
3633;SDS011;1833;42.718;23.270;2022-07-25T09:01:26;30.05;;;27.30;;
3633;SDS011;1833;42.718;23.270;2022-07-25T09:03:53;29.67;;;27.35;;
3633;SDS011;1833;42.718;23.270;2022-07-25T09:06:22;30.98;;;28.27;;
3633;SDS011;1833;42.718;23.270;2022-07-25T09:08:50;30.50;;;28.08;;
3633;SDS011;1833;42.718;23.270;2022-07-25T09:11:24;30.92;;;28.23;;
3633;SDS011;1833;42.718;23.270;2022-07-25T09:13:56;30.48;;;27.85;;
3633;SDS011;1833;42.718;23.270;2022-07-25T09:16:27;30.65;;;28.20;;
3633;SDS011;1833;42.718;23.270;2022-07-25T09:19:04;30.63;;;28.08;;
3633;SDS011;1833;42.718;23.270;2022-07-25T09:21:33;29.40;;;27.15;;
3633;SDS011;1833;42.718;23.270;2022-07-25T09:24:06;29.95;;;27.60;;
3633;SDS011;1833;42.718;23.270;2022-07-25T09:26:41;30.17;;;27.77;;
3633;SDS011;1833;42.718;23.270;2022-07-25T09:29:18;30.17;;;27.90;;
3633;SDS011;1833;42.718;23.270;2022-07-25T09:31:46;30.02;;;27.73;;
3633;SDS011;1833;42.718;23.270;2022-07-25T09:34:15;32.00;;;29.35;;
3633;SDS011;1833;42.718;23.270;2022-07-25T09:36:53;33.63;;;30.58;;
3633;SDS011;1833;42.718;23.270;2022-07-25T09:39:31;30.90;;;28.27;;
3633;SDS011;1833;42.718;23.270;2022-07-25T09:41:58;28.73;;;26.40;;
3633;SDS011;1833;42.718;23.270;2022-07-25T09:44:26;29.33;;;26.95;;
3633;SDS011;1833;42.718;23.270;2022-07-25T09:46:55;30.20;;;27.83;;
3633;SDS011;1833;42.718;23.270;2022-07-25T09:49:23;28.77;;;26.67;;
3633;SDS011;1833;42.718;23.270;2022-07-25T09:51:51;28.35;;;26.00;;
3633;SDS011;1833;42.718;23.270;2022-07-25T09:54:20;28.25;;;26.02;;
3633;SDS011;1833;42.718;23.270;2022-07-25T09:56:48;30.48;;;27.88;;
3633;SDS011;1833;42.718;23.270;2022-07-25T09:59:15;28.55;;;26.33;;
3633;SDS011;1833;42.718;23.270;2022-07-25T10:01:47;28.60;;;26.20;;
3633;SDS011;1833;42.718;23.270;2022-07-25T10:04:18;29.13;;;26.77;;
3633;SDS011;1833;42.718;23.270;2022-07-25T10:06:53;29.40;;;27.20;;
3633;SDS011;1833;42.718;23.270;2022-07-25T10:09:27;27.98;;;25.85;;
3633;SDS011;1833;42.718;23.270;2022-07-25T10:12:04;28.20;;;26.08;;
3633;SDS011;1833;42.718;23.270;2022-07-25T10:14:32;28.25;;;26.08;;
3633;SDS011;1833;42.718;23.270;2022-07-25T10:17:02;28.10;;;25.90;;
3633;SDS011;1833;42.718;23.270;2022-07-25T10:19:39;30.23;;;27.45;;
3633;SDS011;1833;42.718;23.270;2022-07-25T10:22:08;29.85;;;27.48;;
3633;SDS011;1833;42.718;23.270;2022-07-25T10:24:37;29.67;;;27.27;;
3633;SDS011;1833;42.718;23.270;2022-07-25T10:27:06;28.88;;;26.67;;
3633;SDS011;1833;42.718;23.270;2022-07-25T10:29:35;28.63;;;26.52;;
3633;SDS011;1833;42.718;23.270;2022-07-25T10:32:06;28.27;;;26.23;;
3633;SDS011;1833;42.718;23.270;2022-07-25T10:34:34;29.63;;;27.13;;
3633;SDS011;1833;42.718;23.270;2022-07-25T10:37:09;29.60;;;27.33;;
3633;SDS011;1833;42.718;23.270;2022-07-25T10:39:38;28.55;;;26.27;;
3633;SDS011;1833;42.718;23.270;2022-07-25T10:42:05;28.55;;;26.35;;
3633;SDS011;1833;42.718;23.270;2022-07-25T10:44:39;28.45;;;26.35;;
3633;SDS011;1833;42.718;23.270;2022-07-25T10:47:07;28.23;;;26.02;;
3633;SDS011;1833;42.718;23.270;2022-07-25T10:49:36;28.77;;;26.58;;
3633;SDS011;1833;42.718;23.270;2022-07-25T10:52:03;28.52;;;26.38;;
3633;SDS011;1833;42.718;23.270;2022-07-25T10:54:32;29.17;;;26.50;;
3633;SDS011;1833;42.718;23.270;2022-07-25T10:57:02;28.85;;;26.65;;
3633;SDS011;1833;42.718;23.270;2022-07-25T10:59:30;30.70;;;27.73;;
3633;SDS011;1833;42.718;23.270;2022-07-25T11:01:57;28.27;;;26.08;;
3633;SDS011;1833;42.718;23.270;2022-07-25T11:04:25;28.30;;;25.98;;
3633;SDS011;1833;42.718;23.270;2022-07-25T11:06:53;27.17;;;25.13;;
3633;SDS011;1833;42.718;23.270;2022-07-25T11:09:20;27.05;;;25.15;;
3633;SDS011;1833;42.718;23.270;2022-07-25T11:11:49;28.67;;;26.02;;
3633;SDS011;1833;42.718;23.270;2022-07-25T11:14:18;27.58;;;25.48;;
3633;SDS011;1833;42.718;23.270;2022-07-25T11:16:49;28.83;;;26.65;;
3633;SDS011;1833;42.718;23.270;2022-07-25T11:19:17;28.30;;;26.05;;
3633;SDS011;1833;42.718;23.270;2022-07-25T11:21:46;28.10;;;26.05;;
3633;SDS011;1833;42.718;23.270;2022-07-25T11:24:13;28.52;;;26.27;;
3633;SDS011;1833;42.718;23.270;2022-07-25T11:26:44;27.77;;;25.80;;
3633;SDS011;1833;42.718;23.270;2022-07-25T11:29:18;27.63;;;25.42;;
3633;SDS011;1833;42.718;23.270;2022-07-25T11:31:52;27.42;;;25.30;;
3633;SDS011;1833;42.718;23.270;2022-07-25T11:34:20;27.75;;;25.75;;
3633;SDS011;1833;42.718;23.270;2022-07-25T11:36:48;26.90;;;25.02;;
3633;SDS011;1833;42.718;23.270;2022-07-25T11:39:16;27.23;;;24.95;;
3633;SDS011;1833;42.718;23.270;2022-07-25T11:41:44;27.80;;;25.80;;
3633;SDS011;1833;42.718;23.270;2022-07-25T11:44:11;28.27;;;25.83;;
3633;SDS011;1833;42.718;23.270;2022-07-25T11:46:43;30.63;;;27.58;;
3633;SDS011;1833;42.718;23.270;2022-07-25T11:49:11;28.88;;;26.67;;
3633;SDS011;1833;42.718;23.270;2022-07-25T11:51:39;30.55;;;28.15;;
3633;SDS011;1833;42.718;23.270;2022-07-25T11:54:07;28.92;;;26.80;;
3633;SDS011;1833;42.718;23.270;2022-07-25T11:56:36;32.40;;;28.92;;
3633;SDS011;1833;42.718;23.270;2022-07-25T11:59:07;30.42;;;27.80;;
3633;SDS011;1833;42.718;23.270;2022-07-25T12:01:35;29.08;;;26.70;;
3633;SDS011;1833;42.718;23.270;2022-07-25T12:04:08;28.65;;;26.55;;
3633;SDS011;1833;42.718;23.270;2022-07-25T12:06:35;28.38;;;26.35;;
3633;SDS011;1833;42.718;23.270;2022-07-25T12:09:10;29.00;;;26.90;;
3633;SDS011;1833;42.718;23.270;2022-07-25T12:11:37;28.80;;;26.70;;
3633;SDS011;1833;42.718;23.270;2022-07-25T12:14:05;27.98;;;25.88;;
3633;SDS011;1833;42.718;23.270;2022-07-25T12:16:33;28.98;;;26.90;;
3633;SDS011;1833;42.718;23.270;2022-07-25T12:19:00;27.75;;;25.55;;
3633;SDS011;1833;42.718;23.270;2022-07-25T12:21:31;26.98;;;24.80;;
3633;SDS011;1833;42.718;23.270;2022-07-25T12:23:58;28.10;;;26.00;;
3633;SDS011;1833;42.718;23.270;2022-07-25T12:26:25;27.63;;;25.60;;
3633;SDS011;1833;42.718;23.270;2022-07-25T12:28:53;27.55;;;25.55;;
3633;SDS011;1833;42.718;23.270;2022-07-25T12:31:20;28.27;;;25.90;;
3633;SDS011;1833;42.718;23.270;2022-07-25T12:33:48;27.92;;;25.55;;
3633;SDS011;1833;42.718;23.270;2022-07-25T12:36:18;29.30;;;26.80;;
3633;SDS011;1833;42.718;23.270;2022-07-25T12:38:47;28.98;;;26.55;;
3633;SDS011;1833;42.718;23.270;2022-07-25T12:41:14;27.75;;;25.75;;
3633;SDS011;1833;42.718;23.270;2022-07-25T12:43:46;29.92;;;27.73;;
3633;SDS011;1833;42.718;23.270;2022-07-25T12:46:13;31.13;;;28.55;;
3633;SDS011;1833;42.718;23.270;2022-07-25T12:48:41;31.65;;;28.58;;
3633;SDS011;1833;42.718;23.270;2022-07-25T12:51:08;31.23;;;28.55;;
3633;SDS011;1833;42.718;23.270;2022-07-25T12:53:36;30.42;;;28.02;;
3633;SDS011;1833;42.718;23.270;2022-07-25T12:56:05;29.08;;;26.92;;
3633;SDS011;1833;42.718;23.270;2022-07-25T12:58:32;30.17;;;27.75;;
3633;SDS011;1833;42.718;23.270;2022-07-25T13:01:00;29.00;;;26.75;;
3633;SDS011;1833;42.718;23.270;2022-07-25T13:03:27;31.52;;;28.92;;
3633;SDS011;1833;42.718;23.270;2022-07-25T13:05:57;29.70;;;27.50;;
3633;SDS011;1833;42.718;23.270;2022-07-25T13:08:24;32.25;;;29.65;;
3633;SDS011;1833;42.718;23.270;2022-07-25T13:10:52;32.28;;;29.27;;
3633;SDS011;1833;42.718;23.270;2022-07-25T13:13:21;42.13;;;38.13;;
3633;SDS011;1833;42.718;23.270;2022-07-25T13:15:49;30.65;;;28.40;;
3633;SDS011;1833;42.718;23.270;2022-07-25T13:18:18;32.10;;;29.60;;
3633;SDS011;1833;42.718;23.270;2022-07-25T13:20:45;29.30;;;26.70;;
3633;SDS011;1833;42.718;23.270;2022-07-25T13:23:12;28.77;;;26.60;;
3633;SDS011;1833;42.718;23.270;2022-07-25T13:25:40;28.88;;;26.50;;
3633;SDS011;1833;42.718;23.270;2022-07-25T13:28:07;29.50;;;26.95;;
3633;SDS011;1833;42.718;23.270;2022-07-25T13:30:36;27.83;;;25.88;;
3633;SDS011;1833;42.718;23.270;2022-07-25T13:33:03;29.75;;;27.50;;
3633;SDS011;1833;42.718;23.270;2022-07-25T13:35:31;29.80;;;27.58;;
3633;SDS011;1833;42.718;23.270;2022-07-25T13:37:58;29.10;;;27.00;;
3633;SDS011;1833;42.718;23.270;2022-07-25T13:40:25;27.23;;;25.33;;
3633;SDS011;1833;42.718;23.270;2022-07-25T13:42:53;28.05;;;25.73;;
3633;SDS011;1833;42.718;23.270;2022-07-25T13:45:20;28.35;;;26.35;;
3633;SDS011;1833;42.718;23.270;2022-07-25T13:47:50;28.05;;;26.00;;
3633;SDS011;1833;42.718;23.270;2022-07-25T13:50:17;28.80;;;26.42;;
3633;SDS011;1833;42.718;23.270;2022-07-25T13:52:45;28.75;;;26.55;;
3633;SDS011;1833;42.718;23.270;2022-07-25T13:55:12;28.70;;;26.25;;
3633;SDS011;1833;42.718;23.270;2022-07-25T13:57:39;28.55;;;26.48;;
3633;SDS011;1833;42.718;23.270;2022-07-25T14:00:07;28.38;;;26.20;;
3633;SDS011;1833;42.718;23.270;2022-07-25T14:02:35;29.30;;;26.70;;
3633;SDS011;1833;42.718;23.270;2022-07-25T14:05:04;28.40;;;26.30;;
3633;SDS011;1833;42.718;23.270;2022-07-25T14:07:31;27.92;;;26.02;;
3633;SDS011;1833;42.718;23.270;2022-07-25T14:09:59;28.77;;;26.80;;
3633;SDS011;1833;42.718;23.270;2022-07-25T14:12:27;27.90;;;25.90;;
3633;SDS011;1833;42.718;23.270;2022-07-25T14:14:54;27.88;;;25.98;;
3633;SDS011;1833;42.718;23.270;2022-07-25T14:17:22;31.15;;;28.52;;
3633;SDS011;1833;42.718;23.270;2022-07-25T14:19:49;28.35;;;26.25;;
3633;SDS011;1833;42.718;23.270;2022-07-25T14:22:18;29.08;;;26.48;;
3633;SDS011;1833;42.718;23.270;2022-07-25T14:24:45;27.88;;;25.73;;
3633;SDS011;1833;42.718;23.270;2022-07-25T14:27:13;28.27;;;26.08;;
3633;SDS011;1833;42.718;23.270;2022-07-25T14:29:40;34.35;;;30.70;;
3633;SDS011;1833;42.718;23.270;2022-07-25T14:32:07;27.73;;;25.40;;
3633;SDS011;1833;42.718;23.270;2022-07-25T14:34:35;32.47;;;29.45;;
3633;SDS011;1833;42.718;23.270;2022-07-25T14:37:04;27.95;;;25.85;;
3633;SDS011;1833;42.718;23.270;2022-07-25T14:39:33;27.60;;;25.55;;